Pointe Aux Barques, Michigan
Current Conditions -  °F | °C
As of 4:35 AM on Thursday 27 Nov 2014 (Local Time) from KBAX Reporting Station
Overcast Overcast  
Wind Chill: 22°   Ceiling: 6000
Heat Index: 28°   Visibility: 10mi
Dew Point: 24°   Wind: 5mph
Humidity: 88%   Direction: 280°W
Pressure: 30.08"   Gusts: NA
Location:  44.0077°N, 82.9857°W
Report Text: KBAX 270935Z AUTO 28004KT 10SM SCT042 OVC060 M02/M04 A3008 RMK AO2 T10251042
Loading
Personal Weather Stations






























Interactive Weather Map New forecast layout! Learn more

10-Day Weather Forecast

Advertisements
Track Severe Weather on mobile